sensor_id;sensor_type;location;lat;lon;timestamp;P1;durP1;ratioP1;P2;durP2;ratioP2
22184;SDS011;11258;52.516;13.318;2023-02-18T00:00:38;15.33;;;2.97;;
22184;SDS011;11258;52.516;13.318;2023-02-18T00:03:03;12.77;;;2.20;;
22184;SDS011;11258;52.516;13.318;2023-02-18T00:05:29;12.27;;;3.20;;
22184;SDS011;11258;52.516;13.318;2023-02-18T00:07:55;11.83;;;2.93;;
22184;SDS011;11258;52.516;13.318;2023-02-18T00:10:20;16.40;;;3.23;;
22184;SDS011;11258;52.516;13.318;2023-02-18T00:12:46;17.60;;;3.40;;
22184;SDS011;11258;52.516;13.318;2023-02-18T00:15:12;15.43;;;2.97;;
22184;SDS011;11258;52.516;13.318;2023-02-18T00:17:37;15.97;;;3.70;;
22184;SDS011;11258;52.516;13.318;2023-02-18T00:20:04;11.83;;;3.00;;
22184;SDS011;11258;52.516;13.318;2023-02-18T00:22:30;11.10;;;2.73;;
22184;SDS011;11258;52.516;13.318;2023-02-18T00:24:56;12.67;;;2.90;;
22184;SDS011;11258;52.516;13.318;2023-02-18T00:27:22;13.37;;;2.90;;
22184;SDS011;11258;52.516;13.318;2023-02-18T00:29:47;14.23;;;2.93;;
22184;SDS011;11258;52.516;13.318;2023-02-18T00:32:13;13.90;;;3.07;;
22184;SDS011;11258;52.516;13.318;2023-02-18T00:34:38;15.93;;;3.00;;
22184;SDS011;11258;52.516;13.318;2023-02-18T00:37:04;14.57;;;3.43;;
22184;SDS011;11258;52.516;13.318;2023-02-18T00:39:30;10.93;;;2.93;;
22184;SDS011;11258;52.516;13.318;2023-02-18T00:41:55;11.53;;;2.83;;
22184;SDS011;11258;52.516;13.318;2023-02-18T00:44:21;16.13;;;4.03;;
22184;SDS011;11258;52.516;13.318;2023-02-18T00:46:47;16.77;;;2.60;;
22184;SDS011;11258;52.516;13.318;2023-02-18T00:49:14;13.90;;;3.40;;
22184;SDS011;11258;52.516;13.318;2023-02-18T00:51:40;15.20;;;3.13;;
22184;SDS011;11258;52.516;13.318;2023-02-18T00:54:06;12.10;;;2.90;;
22184;SDS011;11258;52.516;13.318;2023-02-18T00:56:31;11.50;;;2.77;;
22184;SDS011;11258;52.516;13.318;2023-02-18T00:58:57;13.43;;;3.17;;
22184;SDS011;11258;52.516;13.318;2023-02-18T01:01:23;13.47;;;3.10;;
22184;SDS011;11258;52.516;13.318;2023-02-18T01:03:49;12.37;;;2.70;;
22184;SDS011;11258;52.516;13.318;2023-02-18T01:06:14;9.40;;;2.70;;
22184;SDS011;11258;52.516;13.318;2023-02-18T01:08:40;12.10;;;2.73;;
22184;SDS011;11258;52.516;13.318;2023-02-18T01:11:07;11.67;;;2.50;;
22184;SDS011;11258;52.516;13.318;2023-02-18T01:13:35;12.33;;;2.97;;
22184;SDS011;11258;52.516;13.318;2023-02-18T01:16:01;15.27;;;3.13;;
22184;SDS011;11258;52.516;13.318;2023-02-18T01:18:27;16.53;;;3.70;;
22184;SDS011;11258;52.516;13.318;2023-02-18T01:20:52;13.67;;;3.17;;
22184;SDS011;11258;52.516;13.318;2023-02-18T01:23:18;11.60;;;2.57;;
22184;SDS011;11258;52.516;13.318;2023-02-18T01:25:44;10.43;;;3.17;;
22184;SDS011;11258;52.516;13.318;2023-02-18T01:28:11;12.17;;;3.07;;
22184;SDS011;11258;52.516;13.318;2023-02-18T01:30:38;7.63;;;2.63;;
22184;SDS011;11258;52.516;13.318;2023-02-18T01:33:04;12.00;;;2.20;;
22184;SDS011;11258;52.516;13.318;2023-02-18T01:35:30;13.40;;;2.90;;
22184;SDS011;11258;52.516;13.318;2023-02-18T01:37:56;15.97;;;2.60;;
22184;SDS011;11258;52.516;13.318;2023-02-18T01:40:23;14.87;;;3.13;;
22184;SDS011;11258;52.516;13.318;2023-02-18T01:42:50;12.47;;;2.67;;
22184;SDS011;11258;52.516;13.318;2023-02-18T01:50:32;19.87;;;2.90;;
22184;SDS011;11258;52.516;13.318;2023-02-18T01:52:59;14.47;;;3.10;;
22184;SDS011;11258;52.516;13.318;2023-02-18T01:55:26;10.80;;;2.73;;
22184;SDS011;11258;52.516;13.318;2023-02-18T01:57:51;12.13;;;2.23;;
22184;SDS011;11258;52.516;13.318;2023-02-18T02:00:18;8.27;;;2.63;;
22184;SDS011;11258;52.516;13.318;2023-02-18T02:02:46;10.57;;;2.70;;
22184;SDS011;11258;52.516;13.318;2023-02-18T02:05:13;11.57;;;2.47;;
22184;SDS011;11258;52.516;13.318;2023-02-18T02:07:40;9.80;;;2.37;;
22184;SDS011;11258;52.516;13.318;2023-02-18T02:10:07;10.17;;;2.60;;
22184;SDS011;11258;52.516;13.318;2023-02-18T02:28:42;8.47;;;2.13;;
22184;SDS011;11258;52.516;13.318;2023-02-18T02:34:41;10.87;;;2.93;;
22184;SDS011;11258;52.516;13.318;2023-02-18T02:37:31;12.77;;;2.13;;
22184;SDS011;11258;52.516;13.318;2023-02-18T02:42:37;11.97;;;2.40;;
22184;SDS011;11258;52.516;13.318;2023-02-18T02:48:00;13.40;;;2.37;;
22184;SDS011;11258;52.516;13.318;2023-02-18T02:51:09;13.70;;;2.67;;
22184;SDS011;11258;52.516;13.318;2023-02-18T02:53:44;10.63;;;2.37;;
22184;SDS011;11258;52.516;13.318;2023-02-18T02:56:20;9.73;;;1.83;;
22184;SDS011;11258;52.516;13.318;2023-02-18T02:59:06;12.23;;;2.70;;
22184;SDS011;11258;52.516;13.318;2023-02-18T03:01:51;10.50;;;2.77;;
22184;SDS011;11258;52.516;13.318;2023-02-18T03:07:35;11.97;;;2.67;;
22184;SDS011;11258;52.516;13.318;2023-02-18T03:10:21;11.37;;;2.47;;
22184;SDS011;11258;52.516;13.318;2023-02-18T03:13:03;12.70;;;2.20;;
22184;SDS011;11258;52.516;13.318;2023-02-18T03:21:12;9.93;;;1.93;;
22184;SDS011;11258;52.516;13.318;2023-02-18T03:24:28;14.90;;;2.57;;
22184;SDS011;11258;52.516;13.318;2023-02-18T03:26:34;10.83;;;2.23;;
22184;SDS011;11258;52.516;13.318;2023-02-18T03:29:04;17.20;;;3.20;;
22184;SDS011;11258;52.516;13.318;2023-02-18T03:31:33;12.13;;;2.65;;
22184;SDS011;11258;52.516;13.318;2023-02-18T03:34:14;9.50;;;2.57;;
22184;SDS011;11258;52.516;13.318;2023-02-18T03:36:42;9.47;;;2.03;;
22184;SDS011;11258;52.516;13.318;2023-02-18T03:39:16;11.77;;;2.00;;
22184;SDS011;11258;52.516;13.318;2023-02-18T03:41:43;13.93;;;3.20;;
22184;SDS011;11258;52.516;13.318;2023-02-18T03:44:09;6.77;;;1.60;;
22184;SDS011;11258;52.516;13.318;2023-02-18T03:46:36;7.93;;;1.83;;
22184;SDS011;11258;52.516;13.318;2023-02-18T03:49:04;7.83;;;2.07;;
22184;SDS011;11258;52.516;13.318;2023-02-18T03:51:30;12.40;;;2.60;;
22184;SDS011;11258;52.516;13.318;2023-02-18T03:53:56;12.57;;;2.67;;
22184;SDS011;11258;52.516;13.318;2023-02-18T03:56:22;9.07;;;1.90;;
22184;SDS011;11258;52.516;13.318;2023-02-18T03:58:48;7.00;;;1.97;;
22184;SDS011;11258;52.516;13.318;2023-02-18T04:01:14;11.63;;;2.53;;
22184;SDS011;11258;52.516;13.318;2023-02-18T04:03:40;13.10;;;2.13;;
22184;SDS011;11258;52.516;13.318;2023-02-18T04:06:06;12.43;;;2.17;;
22184;SDS011;11258;52.516;13.318;2023-02-18T04:08:32;11.20;;;1.90;;
22184;SDS011;11258;52.516;13.318;2023-02-18T04:10:57;6.37;;;1.60;;
22184;SDS011;11258;52.516;13.318;2023-02-18T04:13:23;9.23;;;1.80;;
22184;SDS011;11258;52.516;13.318;2023-02-18T04:15:49;9.17;;;2.03;;
22184;SDS011;11258;52.516;13.318;2023-02-18T04:18:15;10.57;;;1.93;;
22184;SDS011;11258;52.516;13.318;2023-02-18T04:20:41;7.23;;;2.00;;
22184;SDS011;11258;52.516;13.318;2023-02-18T04:23:06;6.57;;;1.87;;
22184;SDS011;11258;52.516;13.318;2023-02-18T04:25:32;8.33;;;2.23;;
22184;SDS011;11258;52.516;13.318;2023-02-18T04:27:58;8.00;;;1.70;;
22184;SDS011;11258;52.516;13.318;2023-02-18T04:30:23;8.27;;;1.97;;
22184;SDS011;11258;52.516;13.318;2023-02-18T04:32:49;6.97;;;1.77;;
22184;SDS011;11258;52.516;13.318;2023-02-18T04:35:15;11.27;;;2.00;;
22184;SDS011;11258;52.516;13.318;2023-02-18T04:37:41;7.97;;;1.80;;
22184;SDS011;11258;52.516;13.318;2023-02-18T04:40:06;10.77;;;2.83;;
22184;SDS011;11258;52.516;13.318;2023-02-18T04:42:33;6.23;;;1.60;;
22184;SDS011;11258;52.516;13.318;2023-02-18T04:44:58;7.90;;;1.70;;
22184;SDS011;11258;52.516;13.318;2023-02-18T04:47:24;8.93;;;2.23;;
22184;SDS011;11258;52.516;13.318;2023-02-18T04:49:50;6.93;;;2.60;;
22184;SDS011;11258;52.516;13.318;2023-02-18T04:52:15;6.10;;;1.83;;
22184;SDS011;11258;52.516;13.318;2023-02-18T04:54:41;7.23;;;1.87;;
22184;SDS011;11258;52.516;13.318;2023-02-18T04:57:06;12.57;;;2.30;;
22184;SDS011;11258;52.516;13.318;2023-02-18T04:59:32;12.10;;;2.45;;
22184;SDS011;11258;52.516;13.318;2023-02-18T05:01:58;7.63;;;1.93;;
22184;SDS011;11258;52.516;13.318;2023-02-18T05:04:23;8.60;;;1.60;;
22184;SDS011;11258;52.516;13.318;2023-02-18T05:06:49;7.20;;;1.80;;
22184;SDS011;11258;52.516;13.318;2023-02-18T05:09:15;7.17;;;1.97;;
22184;SDS011;11258;52.516;13.318;2023-02-18T05:11:40;10.20;;;1.97;;
22184;SDS011;11258;52.516;13.318;2023-02-18T05:14:06;9.30;;;1.80;;
22184;SDS011;11258;52.516;13.318;2023-02-18T05:16:32;9.00;;;2.50;;
22184;SDS011;11258;52.516;13.318;2023-02-18T05:18:57;12.63;;;1.87;;
22184;SDS011;11258;52.516;13.318;2023-02-18T05:21:23;7.37;;;1.80;;
22184;SDS011;11258;52.516;13.318;2023-02-18T05:23:49;7.30;;;1.80;;
22184;SDS011;11258;52.516;13.318;2023-02-18T05:26:15;14.33;;;2.20;;
22184;SDS011;11258;52.516;13.318;2023-02-18T05:28:41;9.83;;;2.00;;
22184;SDS011;11258;52.516;13.318;2023-02-18T05:31:06;10.37;;;1.97;;
22184;SDS011;11258;52.516;13.318;2023-02-18T05:33:32;6.23;;;1.53;;
22184;SDS011;11258;52.516;13.318;2023-02-18T05:35:57;8.07;;;1.60;;
22184;SDS011;11258;52.516;13.318;2023-02-18T05:38:23;10.30;;;1.97;;
22184;SDS011;11258;52.516;13.318;2023-02-18T05:40:49;5.63;;;2.07;;
22184;SDS011;11258;52.516;13.318;2023-02-18T05:43:14;7.27;;;1.50;;
22184;SDS011;11258;52.516;13.318;2023-02-18T05:45:40;8.60;;;1.40;;
22184;SDS011;11258;52.516;13.318;2023-02-18T05:48:05;7.10;;;1.97;;
22184;SDS011;11258;52.516;13.318;2023-02-18T05:50:31;6.70;;;1.30;;
22184;SDS011;11258;52.516;13.318;2023-02-18T05:52:57;4.60;;;1.40;;
22184;SDS011;11258;52.516;13.318;2023-02-18T05:55:23;5.23;;;1.70;;
22184;SDS011;11258;52.516;13.318;2023-02-18T05:57:49;7.43;;;1.50;;
22184;SDS011;11258;52.516;13.318;2023-02-18T06:00:15;5.83;;;1.60;;
22184;SDS011;11258;52.516;13.318;2023-02-18T06:02:41;7.67;;;2.00;;
22184;SDS011;11258;52.516;13.318;2023-02-18T06:05:08;7.80;;;2.03;;
22184;SDS011;11258;52.516;13.318;2023-02-18T06:07:34;11.10;;;2.27;;
22184;SDS011;11258;52.516;13.318;2023-02-18T06:10:00;11.40;;;2.07;;
22184;SDS011;11258;52.516;13.318;2023-02-18T06:12:26;8.30;;;1.73;;
22184;SDS011;11258;52.516;13.318;2023-02-18T06:14:52;6.27;;;1.40;;
22184;SDS011;11258;52.516;13.318;2023-02-18T06:17:18;6.47;;;1.60;;
22184;SDS011;11258;52.516;13.318;2023-02-18T06:19:44;7.20;;;1.40;;
22184;SDS011;11258;52.516;13.318;2023-02-18T06:22:10;4.20;;;1.87;;
22184;SDS011;11258;52.516;13.318;2023-02-18T06:24:36;8.37;;;1.50;;
22184;SDS011;11258;52.516;13.318;2023-02-18T06:27:02;9.67;;;2.17;;
22184;SDS011;11258;52.516;13.318;2023-02-18T06:29:28;6.77;;;1.50;;
22184;SDS011;11258;52.516;13.318;2023-02-18T06:31:55;9.43;;;1.70;;
22184;SDS011;11258;52.516;13.318;2023-02-18T06:34:21;8.77;;;1.77;;
22184;SDS011;11258;52.516;13.318;2023-02-18T06:36:47;4.53;;;1.67;;
22184;SDS011;11258;52.516;13.318;2023-02-18T06:39:13;6.33;;;1.50;;
22184;SDS011;11258;52.516;13.318;2023-02-18T06:41:39;7.57;;;1.50;;
22184;SDS011;11258;52.516;13.318;2023-02-18T06:44:05;8.00;;;1.43;;
22184;SDS011;11258;52.516;13.318;2023-02-18T06:46:31;8.60;;;1.43;;
22184;SDS011;11258;52.516;13.318;2023-02-18T06:48:56;4.47;;;1.43;;
22184;SDS011;11258;52.516;13.318;2023-02-18T06:51:22;3.90;;;1.37;;
22184;SDS011;11258;52.516;13.318;2023-02-18T06:53:48;6.97;;;1.60;;
22184;SDS011;11258;52.516;13.318;2023-02-18T06:56:14;7.43;;;1.90;;
22184;SDS011;11258;52.516;13.318;2023-02-18T06:58:40;9.30;;;1.80;;
22184;SDS011;11258;52.516;13.318;2023-02-18T07:01:05;6.37;;;1.37;;
22184;SDS011;11258;52.516;13.318;2023-02-18T07:03:31;4.97;;;1.20;;
22184;SDS011;11258;52.516;13.318;2023-02-18T07:05:57;5.40;;;1.50;;
22184;SDS011;11258;52.516;13.318;2023-02-18T07:08:22;4.40;;;1.33;;
22184;SDS011;11258;52.516;13.318;2023-02-18T07:10:48;3.93;;;1.30;;
22184;SDS011;11258;52.516;13.318;2023-02-18T07:13:14;6.80;;;1.70;;
22184;SDS011;11258;52.516;13.318;2023-02-18T07:15:39;7.00;;;1.20;;
22184;SDS011;11258;52.516;13.318;2023-02-18T07:18:05;6.40;;;1.60;;
22184;SDS011;11258;52.516;13.318;2023-02-18T07:20:30;7.30;;;1.37;;
22184;SDS011;11258;52.516;13.318;2023-02-18T07:22:56;3.90;;;1.13;;
22184;SDS011;11258;52.516;13.318;2023-02-18T07:25:22;6.87;;;1.57;;
22184;SDS011;11258;52.516;13.318;2023-02-18T07:27:48;4.27;;;1.33;;
22184;SDS011;11258;52.516;13.318;2023-02-18T07:30:14;5.90;;;1.33;;
22184;SDS011;11258;52.516;13.318;2023-02-18T07:32:40;7.40;;;1.60;;
22184;SDS011;11258;52.516;13.318;2023-02-18T07:35:06;4.97;;;1.63;;
22184;SDS011;11258;52.516;13.318;2023-02-18T07:37:32;4.80;;;1.30;;
22184;SDS011;11258;52.516;13.318;2023-02-18T07:39:58;5.13;;;1.40;;
22184;SDS011;11258;52.516;13.318;2023-02-18T07:42:23;5.90;;;1.33;;
22184;SDS011;11258;52.516;13.318;2023-02-18T07:44:49;6.47;;;2.07;;
22184;SDS011;11258;52.516;13.318;2023-02-18T07:47:15;4.37;;;1.20;;
22184;SDS011;11258;52.516;13.318;2023-02-18T07:49:43;8.57;;;1.50;;
22184;SDS011;11258;52.516;13.318;2023-02-18T07:52:10;4.83;;;1.67;;
22184;SDS011;11258;52.516;13.318;2023-02-18T07:54:36;5.87;;;1.70;;
22184;SDS011;11258;52.516;13.318;2023-02-18T07:57:02;5.70;;;1.90;;
22184;SDS011;11258;52.516;13.318;2023-02-18T07:59:28;8.50;;;1.53;;
22184;SDS011;11258;52.516;13.318;2023-02-18T08:01:54;3.63;;;1.40;;
22184;SDS011;11258;52.516;13.318;2023-02-18T08:04:19;6.87;;;1.33;;
22184;SDS011;11258;52.516;13.318;2023-02-18T08:06:45;4.80;;;1.47;;
22184;SDS011;11258;52.516;13.318;2023-02-18T08:09:14;5.73;;;1.43;;
22184;SDS011;11258;52.516;13.318;2023-02-18T08:11:41;7.27;;;1.20;;
22184;SDS011;11258;52.516;13.318;2023-02-18T08:14:06;2.53;;;1.20;;
22184;SDS011;11258;52.516;13.318;2023-02-18T08:16:32;5.10;;;1.23;;
22184;SDS011;11258;52.516;13.318;2023-02-18T08:18:58;4.10;;;1.60;;
22184;SDS011;11258;52.516;13.318;2023-02-18T08:21:25;6.53;;;1.50;;
22184;SDS011;11258;52.516;13.318;2023-02-18T08:23:51;6.30;;;1.37;;
22184;SDS011;11258;52.516;13.318;2023-02-18T08:26:18;7.93;;;1.80;;
22184;SDS011;11258;52.516;13.318;2023-02-18T08:28:45;8.80;;;1.97;;
22184;SDS011;11258;52.516;13.318;2023-02-18T08:31:18;5.60;;;2.03;;
22184;SDS011;11258;52.516;13.318;2023-02-18T08:33:49;8.13;;;1.60;;
22184;SDS011;11258;52.516;13.318;2023-02-18T08:36:15;9.40;;;1.53;;
22184;SDS011;11258;52.516;13.318;2023-02-18T08:38:41;7.13;;;1.40;;
22184;SDS011;11258;52.516;13.318;2023-02-18T08:41:07;9.30;;;1.50;;
22184;SDS011;11258;52.516;13.318;2023-02-18T08:43:33;5.67;;;1.30;;
22184;SDS011;11258;52.516;13.318;2023-02-18T08:45:59;4.97;;;1.43;;
22184;SDS011;11258;52.516;13.318;2023-02-18T08:48:25;4.53;;;1.33;;
22184;SDS011;11258;52.516;13.318;2023-02-18T08:50:51;8.37;;;1.57;;
22184;SDS011;11258;52.516;13.318;2023-02-18T08:53:17;6.90;;;1.43;;
22184;SDS011;11258;52.516;13.318;2023-02-18T08:55:43;6.37;;;1.77;;
22184;SDS011;11258;52.516;13.318;2023-02-18T08:58:09;6.53;;;1.93;;
22184;SDS011;11258;52.516;13.318;2023-02-18T09:00:35;3.70;;;1.40;;
22184;SDS011;11258;52.516;13.318;2023-02-18T09:03:01;7.20;;;1.70;;
22184;SDS011;11258;52.516;13.318;2023-02-18T09:05:27;7.33;;;1.63;;
22184;SDS011;11258;52.516;13.318;2023-02-18T09:07:53;9.57;;;1.63;;
22184;SDS011;11258;52.516;13.318;2023-02-18T09:10:18;6.23;;;1.67;;
22184;SDS011;11258;52.516;13.318;2023-02-18T09:12:44;7.73;;;1.73;;
22184;SDS011;11258;52.516;13.318;2023-02-18T09:15:10;8.10;;;1.90;;
22184;SDS011;11258;52.516;13.318;2023-02-18T09:17:35;6.80;;;2.10;;
22184;SDS011;11258;52.516;13.318;2023-02-18T09:20:01;11.07;;;1.93;;
22184;SDS011;11258;52.516;13.318;2023-02-18T09:22:27;6.37;;;1.63;;
22184;SDS011;11258;52.516;13.318;2023-02-18T09:24:52;8.17;;;2.00;;
22184;SDS011;11258;52.516;13.318;2023-02-18T09:27:18;5.17;;;1.83;;
22184;SDS011;11258;52.516;13.318;2023-02-18T09:29:44;12.40;;;1.87;;
22184;SDS011;11258;52.516;13.318;2023-02-18T09:32:09;6.00;;;1.67;;
22184;SDS011;11258;52.516;13.318;2023-02-18T09:34:36;7.53;;;2.23;;
22184;SDS011;11258;52.516;13.318;2023-02-18T09:37:02;8.90;;;2.33;;
22184;SDS011;11258;52.516;13.318;2023-02-18T09:39:28;7.70;;;1.87;;
22184;SDS011;11258;52.516;13.318;2023-02-18T09:41:54;10.10;;;2.33;;
22184;SDS011;11258;52.516;13.318;2023-02-18T09:47:36;13.67;;;2.53;;
22184;SDS011;11258;52.516;13.318;2023-02-18T09:50:05;8.37;;;2.23;;
22184;SDS011;11258;52.516;13.318;2023-02-18T09:52:33;8.40;;;1.93;;
22184;SDS011;11258;52.516;13.318;2023-02-18T09:55:12;6.03;;;2.20;;
22184;SDS011;11258;52.516;13.318;2023-02-18T09:57:43;5.83;;;2.23;;
22184;SDS011;11258;52.516;13.318;2023-02-18T10:00:12;7.67;;;2.83;;
22184;SDS011;11258;52.516;13.318;2023-02-18T10:02:39;12.03;;;2.90;;
22184;SDS011;11258;52.516;13.318;2023-02-18T10:05:17;8.57;;;2.23;;
22184;SDS011;11258;52.516;13.318;2023-02-18T10:07:43;10.37;;;1.77;;
22184;SDS011;11258;52.516;13.318;2023-02-18T10:13:05;9.97;;;2.60;;
22184;SDS011;11258;52.516;13.318;2023-02-18T10:15:36;5.90;;;1.97;;
22184;SDS011;11258;52.516;13.318;2023-02-18T10:18:02;8.00;;;2.47;;
22184;SDS011;11258;52.516;13.318;2023-02-18T10:20:36;6.73;;;2.43;;
22184;SDS011;11258;52.516;13.318;2023-02-18T10:23:02;7.03;;;2.40;;
22184;SDS011;11258;52.516;13.318;2023-02-18T10:25:30;11.53;;;3.17;;
22184;SDS011;11258;52.516;13.318;2023-02-18T10:27:58;9.93;;;3.30;;
22184;SDS011;11258;52.516;13.318;2023-02-18T10:30:45;7.87;;;2.43;;
22184;SDS011;11258;52.516;13.318;2023-02-18T10:33:34;9.67;;;2.33;;
22184;SDS011;11258;52.516;13.318;2023-02-18T10:41:41;10.10;;;2.60;;
22184;SDS011;11258;52.516;13.318;2023-02-18T10:47:34;8.93;;;2.60;;
22184;SDS011;11258;52.516;13.318;2023-02-18T10:50:22;4.83;;;1.97;;
22184;SDS011;11258;52.516;13.318;2023-02-18T10:52:54;5.10;;;1.90;;
22184;SDS011;11258;52.516;13.318;2023-02-18T10:55:37;10.27;;;2.47;;
22184;SDS011;11258;52.516;13.318;2023-02-18T11:00:56;6.77;;;1.90;;
22184;SDS011;11258;52.516;13.318;2023-02-18T11:03:23;6.10;;;2.13;;
22184;SDS011;11258;52.516;13.318;2023-02-18T11:05:51;9.27;;;2.23;;
22184;SDS011;11258;52.516;13.318;2023-02-18T11:08:26;7.97;;;2.43;;
22184;SDS011;11258;52.516;13.318;2023-02-18T11:11:05;5.03;;;1.80;;
22184;SDS011;11258;52.516;13.318;2023-02-18T11:13:36;6.57;;;2.13;;
22184;SDS011;11258;52.516;13.318;2023-02-18T11:16:04;7.50;;;2.90;;
22184;SDS011;11258;52.516;13.318;2023-02-18T11:21:17;6.27;;;2.10;;
22184;SDS011;11258;52.516;13.318;2023-02-18T11:23:45;6.20;;;1.70;;
22184;SDS011;11258;52.516;13.318;2023-02-18T11:26:13;3.80;;;2.00;;
22184;SDS011;11258;52.516;13.318;2023-02-18T11:28:45;7.00;;;2.40;;
22184;SDS011;11258;52.516;13.318;2023-02-18T11:31:19;4.87;;;2.10;;
22184;SDS011;11258;52.516;13.318;2023-02-18T11:33:49;4.00;;;1.90;;
22184;SDS011;11258;52.516;13.318;2023-02-18T11:36:27;4.47;;;1.80;;
22184;SDS011;11258;52.516;13.318;2023-02-18T11:39:05;1.57;;;1.37;;
22184;SDS011;11258;52.516;13.318;2023-02-18T11:41:39;7.33;;;1.87;;
22184;SDS011;11258;52.516;13.318;2023-02-18T11:44:26;4.33;;;1.97;;
22184;SDS011;11258;52.516;13.318;2023-02-18T11:46:56;4.57;;;1.27;;
22184;SDS011;11258;52.516;13.318;2023-02-18T11:49:27;2.87;;;1.10;;
22184;SDS011;11258;52.516;13.318;2023-02-18T11:51:54;3.37;;;1.30;;
22184;SDS011;11258;52.516;13.318;2023-02-18T11:54:29;2.00;;;1.47;;
22184;SDS011;11258;52.516;13.318;2023-02-18T11:56:56;4.73;;;1.33;;
22184;SDS011;11258;52.516;13.318;2023-02-18T11:59:36;2.33;;;1.50;;
22184;SDS011;11258;52.516;13.318;2023-02-18T12:02:27;2.53;;;1.70;;
22184;SDS011;11258;52.516;13.318;2023-02-18T12:04:56;3.97;;;1.40;;
22184;SDS011;11258;52.516;13.318;2023-02-18T12:10:11;4.50;;;1.80;;
22184;SDS011;11258;52.516;13.318;2023-02-18T12:12:50;3.60;;;1.90;;
22184;SDS011;11258;52.516;13.318;2023-02-18T12:15:23;2.23;;;1.80;;
22184;SDS011;11258;52.516;13.318;2023-02-18T12:23:21;3.47;;;2.07;;
22184;SDS011;11258;52.516;13.318;2023-02-18T12:38:53;3.60;;;2.73;;
22184;SDS011;11258;52.516;13.318;2023-02-18T12:44:07;5.17;;;3.23;;
22184;SDS011;11258;52.516;13.318;2023-02-18T12:57:55;3.87;;;3.47;;
22184;SDS011;11258;52.516;13.318;2023-02-18T13:09:07;4.50;;;3.10;;
22184;SDS011;11258;52.516;13.318;2023-02-18T13:11:47;4.43;;;3.13;;
22184;SDS011;11258;52.516;13.318;2023-02-18T13:14:52;3.53;;;3.13;;
22184;SDS011;11258;52.516;13.318;2023-02-18T13:17:23;3.80;;;2.90;;
22184;SDS011;11258;52.516;13.318;2023-02-18T13:19:59;4.77;;;2.90;;
22184;SDS011;11258;52.516;13.318;2023-02-18T13:22:33;5.13;;;3.23;;
22184;SDS011;11258;52.516;13.318;2023-02-18T13:25:00;3.20;;;2.63;;
22184;SDS011;11258;52.516;13.318;2023-02-18T13:27:39;2.90;;;2.57;;
22184;SDS011;11258;52.516;13.318;2023-02-18T13:32:41;3.27;;;2.27;;
22184;SDS011;11258;52.516;13.318;2023-02-18T13:35:41;4.03;;;2.60;;
22184;SDS011;11258;52.516;13.318;2023-02-18T13:41:00;4.67;;;2.07;;
22184;SDS011;11258;52.516;13.318;2023-02-18T13:51:17;1.50;;;1.40;;
22184;SDS011;11258;52.516;13.318;2023-02-18T13:54:04;2.27;;;1.67;;
22184;SDS011;11258;52.516;13.318;2023-02-18T13:56:38;2.90;;;1.70;;
22184;SDS011;11258;52.516;13.318;2023-02-18T14:01:42;2.30;;;1.60;;
22184;SDS011;11258;52.516;13.318;2023-02-18T14:07:25;2.30;;;1.77;;
22184;SDS011;11258;52.516;13.318;2023-02-18T14:10:39;3.93;;;2.07;;
22184;SDS011;11258;52.516;13.318;2023-02-18T14:17:49;2.20;;;1.30;;
22184;SDS011;11258;52.516;13.318;2023-02-18T14:50:47;3.10;;;1.63;;
22184;SDS011;11258;52.516;13.318;2023-02-18T14:53:16;3.10;;;1.80;;
22184;SDS011;11258;52.516;13.318;2023-02-18T14:55:45;1.33;;;1.23;;
22184;SDS011;11258;52.516;13.318;2023-02-18T15:00:52;2.50;;;1.00;;
22184;SDS011;11258;52.516;13.318;2023-02-18T15:03:18;2.10;;;1.60;;
22184;SDS011;11258;52.516;13.318;2023-02-18T15:05:46;2.50;;;1.90;;
22184;SDS011;11258;52.516;13.318;2023-02-18T15:08:15;2.60;;;1.97;;
22184;SDS011;11258;52.516;13.318;2023-02-18T15:13:33;1.47;;;1.20;;
22184;SDS011;11258;52.516;13.318;2023-02-18T15:16:46;1.63;;;1.40;;
22184;SDS011;11258;52.516;13.318;2023-02-18T15:18:56;1.60;;;1.10;;
22184;SDS011;11258;52.516;13.318;2023-02-18T15:22:12;1.40;;;1.13;;
22184;SDS011;11258;52.516;13.318;2023-02-18T15:24:20;5.13;;;1.50;;
22184;SDS011;11258;52.516;13.318;2023-02-18T15:26:51;1.50;;;1.40;;
22184;SDS011;11258;52.516;13.318;2023-02-18T15:29:21;1.00;;;0.90;;
22184;SDS011;11258;52.516;13.318;2023-02-18T15:31:58;1.13;;;1.00;;
22184;SDS011;11258;52.516;13.318;2023-02-18T15:36:55;1.27;;;0.90;;
22184;SDS011;11258;52.516;13.318;2023-02-18T15:39:22;1.27;;;1.10;;
22184;SDS011;11258;52.516;13.318;2023-02-18T15:41:52;1.80;;;1.10;;
22184;SDS011;11258;52.516;13.318;2023-02-18T15:44:24;2.03;;;0.90;;
22184;SDS011;11258;52.516;13.318;2023-02-18T15:46:52;0.80;;;0.70;;
22184;SDS011;11258;52.516;13.318;2023-02-18T15:49:21;0.70;;;0.63;;
22184;SDS011;11258;52.516;13.318;2023-02-18T15:51:48;1.43;;;0.70;;
22184;SDS011;11258;52.516;13.318;2023-02-18T15:54:19;0.80;;;0.80;;
22184;SDS011;11258;52.516;13.318;2023-02-18T15:56:48;1.00;;;0.80;;
22184;SDS011;11258;52.516;13.318;2023-02-18T15:59:17;2.13;;;1.30;;
22184;SDS011;11258;52.516;13.318;2023-02-18T16:01:46;0.67;;;0.67;;
22184;SDS011;11258;52.516;13.318;2023-02-18T16:04:17;1.50;;;0.90;;
22184;SDS011;11258;52.516;13.318;2023-02-18T16:06:46;1.20;;;1.00;;
22184;SDS011;11258;52.516;13.318;2023-02-18T16:09:15;2.03;;;1.57;;
22184;SDS011;11258;52.516;13.318;2023-02-18T16:11:44;1.53;;;1.03;;
22184;SDS011;11258;52.516;13.318;2023-02-18T16:14:38;1.20;;;0.73;;
22184;SDS011;11258;52.516;13.318;2023-02-18T16:17:22;1.10;;;0.80;;
22184;SDS011;11258;52.516;13.318;2023-02-18T16:20:00;1.60;;;1.10;;
22184;SDS011;11258;52.516;13.318;2023-02-18T16:22:43;4.40;;;1.70;;
22184;SDS011;11258;52.516;13.318;2023-02-18T16:30:27;4.33;;;1.30;;
22184;SDS011;11258;52.516;13.318;2023-02-18T16:32:55;2.03;;;1.23;;
22184;SDS011;11258;52.516;13.318;2023-02-18T16:35:22;4.13;;;1.30;;
22184;SDS011;11258;52.516;13.318;2023-02-18T16:37:51;1.67;;;1.17;;
22184;SDS011;11258;52.516;13.318;2023-02-18T16:40:25;2.60;;;1.13;;
22184;SDS011;11258;52.516;13.318;2023-02-18T16:42:59;1.83;;;1.00;;
22184;SDS011;11258;52.516;13.318;2023-02-18T16:45:38;3.43;;;1.47;;
22184;SDS011;11258;52.516;13.318;2023-02-18T16:48:32;2.63;;;1.43;;
22184;SDS011;11258;52.516;13.318;2023-02-18T16:51:08;3.83;;;1.20;;
22184;SDS011;11258;52.516;13.318;2023-02-18T16:53:37;5.40;;;2.97;;
22184;SDS011;11258;52.516;13.318;2023-02-18T16:56:04;3.07;;;2.13;;
22184;SDS011;11258;52.516;13.318;2023-02-18T16:58:30;3.43;;;2.00;;
22184;SDS011;11258;52.516;13.318;2023-02-18T17:00:56;9.47;;;5.40;;
22184;SDS011;11258;52.516;13.318;2023-02-18T17:03:22;5.20;;;3.00;;
22184;SDS011;11258;52.516;13.318;2023-02-18T17:05:47;3.90;;;2.70;;
22184;SDS011;11258;52.516;13.318;2023-02-18T17:08:23;3.90;;;2.60;;
22184;SDS011;11258;52.516;13.318;2023-02-18T17:10:54;3.13;;;1.70;;
22184;SDS011;11258;52.516;13.318;2023-02-18T17:13:25;3.17;;;1.87;;
22184;SDS011;11258;52.516;13.318;2023-02-18T17:15:54;5.07;;;2.80;;
22184;SDS011;11258;52.516;13.318;2023-02-18T17:18:21;1.87;;;1.40;;
22184;SDS011;11258;52.516;13.318;2023-02-18T17:20:48;2.13;;;1.77;;
22184;SDS011;11258;52.516;13.318;2023-02-18T17:23:15;2.40;;;1.47;;
22184;SDS011;11258;52.516;13.318;2023-02-18T17:25:45;2.80;;;1.40;;
22184;SDS011;11258;52.516;13.318;2023-02-18T17:28:12;2.10;;;1.57;;
22184;SDS011;11258;52.516;13.318;2023-02-18T17:30:40;1.40;;;1.30;;
22184;SDS011;11258;52.516;13.318;2023-02-18T17:33:07;2.00;;;1.47;;